sensor_id;sensor_type;location;lat;lon;timestamp;temperature;humidity
33831;DHT22;20137;48.834;8.732;2023-03-01T00:01:18;-2.20;99.90
33831;DHT22;20137;48.834;8.732;2023-03-01T00:03:44;-2.30;99.90
33831;DHT22;20137;48.834;8.732;2023-03-01T00:06:10;-2.30;99.90
33831;DHT22;20137;48.834;8.732;2023-03-01T00:08:36;-2.30;99.90
33831;DHT22;20137;48.834;8.732;2023-03-01T00:11:06;-2.40;99.90
33831;DHT22;20137;48.834;8.732;2023-03-01T00:13:33;-2.30;99.90
33831;DHT22;20137;48.834;8.732;2023-03-01T00:16:05;-2.30;99.90
33831;DHT22;20137;48.834;8.732;2023-03-01T00:18:31;-2.40;99.90
33831;DHT22;20137;48.834;8.732;2023-03-01T00:20:58;-2.40;99.90
33831;DHT22;20137;48.834;8.732;2023-03-01T00:23:24;-2.50;99.90
33831;DHT22;20137;48.834;8.732;2023-03-01T00:25:50;-2.50;99.90
33831;DHT22;20137;48.834;8.732;2023-03-01T00:28:16;-2.50;99.90
33831;DHT22;20137;48.834;8.732;2023-03-01T00:30:42;-2.50;99.90
33831;DHT22;20137;48.834;8.732;2023-03-01T00:33:08;-2.60;99.90
33831;DHT22;20137;48.834;8.732;2023-03-01T00:35:33;-2.70;99.90
33831;DHT22;20137;48.834;8.732;2023-03-01T00:37:59;-2.70;99.90
33831;DHT22;20137;48.834;8.732;2023-03-01T00:40:26;-2.70;99.90
33831;DHT22;20137;48.834;8.732;2023-03-01T00:42:52;-2.70;99.90
33831;DHT22;20137;48.834;8.732;2023-03-01T00:45:17;-2.70;99.90
33831;DHT22;20137;48.834;8.732;2023-03-01T00:47:43;-2.70;99.90
33831;DHT22;20137;48.834;8.732;2023-03-01T00:50:10;-2.70;99.90
33831;DHT22;20137;48.834;8.732;2023-03-01T00:52:36;-2.70;99.90
33831;DHT22;20137;48.834;8.732;2023-03-01T00:55:02;-2.60;99.90
33831;DHT22;20137;48.834;8.732;2023-03-01T00:57:28;-2.60;99.90
33831;DHT22;20137;48.834;8.732;2023-03-01T00:59:54;-2.70;99.90
33831;DHT22;20137;48.834;8.732;2023-03-01T01:02:20;-2.70;99.90
33831;DHT22;20137;48.834;8.732;2023-03-01T01:04:46;-2.70;99.90
33831;DHT22;20137;48.834;8.732;2023-03-01T01:07:12;-2.80;99.90
33831;DHT22;20137;48.834;8.732;2023-03-01T01:09:38;-2.70;99.90
33831;DHT22;20137;48.834;8.732;2023-03-01T01:12:04;-2.60;99.90
33831;DHT22;20137;48.834;8.732;2023-03-01T01:14:30;-2.60;99.90
33831;DHT22;20137;48.834;8.732;2023-03-01T01:16:56;-2.60;99.90
33831;DHT22;20137;48.834;8.732;2023-03-01T01:19:22;-2.70;99.90
33831;DHT22;20137;48.834;8.732;2023-03-01T01:21:51;-2.80;99.90
33831;DHT22;20137;48.834;8.732;2023-03-01T01:24:17;-2.80;99.90
33831;DHT22;20137;48.834;8.732;2023-03-01T01:26:43;-2.80;99.90
33831;DHT22;20137;48.834;8.732;2023-03-01T01:29:09;-2.80;99.90
33831;DHT22;20137;48.834;8.732;2023-03-01T01:31:36;-2.80;99.90
33831;DHT22;20137;48.834;8.732;2023-03-01T01:34:06;-2.90;99.90
33831;DHT22;20137;48.834;8.732;2023-03-01T01:36:32;-2.90;99.90
33831;DHT22;20137;48.834;8.732;2023-03-01T01:38:59;-3.00;99.90
33831;DHT22;20137;48.834;8.732;2023-03-01T01:41:27;-2.90;99.90
33831;DHT22;20137;48.834;8.732;2023-03-01T01:44:13;-2.90;99.90
33831;DHT22;20137;48.834;8.732;2023-03-01T01:49:47;-2.90;99.90
33831;DHT22;20137;48.834;8.732;2023-03-01T01:57:43;-3.00;99.90
33831;DHT22;20137;48.834;8.732;2023-03-01T02:00:15;-3.10;99.90
33831;DHT22;20137;48.834;8.732;2023-03-01T02:02:43;-3.10;99.90
33831;DHT22;20137;48.834;8.732;2023-03-01T02:05:20;-3.10;99.90
33831;DHT22;20137;48.834;8.732;2023-03-01T02:07:48;-3.00;99.90
33831;DHT22;20137;48.834;8.732;2023-03-01T02:10:15;-3.00;99.90
33831;DHT22;20137;48.834;8.732;2023-03-01T02:12:41;-3.00;99.90
33831;DHT22;20137;48.834;8.732;2023-03-01T02:15:16;-3.00;99.90
33831;DHT22;20137;48.834;8.732;2023-03-01T02:17:45;-3.10;99.90
33831;DHT22;20137;48.834;8.732;2023-03-01T02:20:27;-3.10;99.90
33831;DHT22;20137;48.834;8.732;2023-03-01T02:22:55;-3.10;99.90
33831;DHT22;20137;48.834;8.732;2023-03-01T02:25:39;-3.10;99.90
33831;DHT22;20137;48.834;8.732;2023-03-01T02:30:49;-3.10;99.90
33831;DHT22;20137;48.834;8.732;2023-03-01T02:33:36;-3.10;99.90
33831;DHT22;20137;48.834;8.732;2023-03-01T02:36:06;-3.10;99.90
33831;DHT22;20137;48.834;8.732;2023-03-01T02:38:33;-3.10;99.90
33831;DHT22;20137;48.834;8.732;2023-03-01T02:41:00;-3.10;99.90
33831;DHT22;20137;48.834;8.732;2023-03-01T02:43:30;-3.20;99.90
33831;DHT22;20137;48.834;8.732;2023-03-01T02:46:06;-3.20;99.90
33831;DHT22;20137;48.834;8.732;2023-03-01T02:48:47;-3.20;99.90
33831;DHT22;20137;48.834;8.732;2023-03-01T02:57:06;-3.50;99.90
33831;DHT22;20137;48.834;8.732;2023-03-01T02:59:35;-3.40;99.90
33831;DHT22;20137;48.834;8.732;2023-03-01T03:02:05;-3.50;99.90
33831;DHT22;20137;48.834;8.732;2023-03-01T03:04:31;-3.50;99.90
33831;DHT22;20137;48.834;8.732;2023-03-01T03:06:57;-3.60;99.90
33831;DHT22;20137;48.834;8.732;2023-03-01T03:09:23;-3.60;99.90
33831;DHT22;20137;48.834;8.732;2023-03-01T03:11:48;-3.60;99.90
33831;DHT22;20137;48.834;8.732;2023-03-01T03:14:15;-3.60;99.90
33831;DHT22;20137;48.834;8.732;2023-03-01T03:16:43;-3.60;99.90
33831;DHT22;20137;48.834;8.732;2023-03-01T03:19:10;-3.50;99.90
33831;DHT22;20137;48.834;8.732;2023-03-01T03:21:35;-3.40;99.90
33831;DHT22;20137;48.834;8.732;2023-03-01T03:24:02;-3.20;99.90
33831;DHT22;20137;48.834;8.732;2023-03-01T03:26:27;-3.10;99.90
33831;DHT22;20137;48.834;8.732;2023-03-01T03:28:53;-3.00;99.90
33831;DHT22;20137;48.834;8.732;2023-03-01T03:31:19;-3.00;99.90
33831;DHT22;20137;48.834;8.732;2023-03-01T03:33:45;-2.90;99.90
33831;DHT22;20137;48.834;8.732;2023-03-01T03:36:16;-2.80;99.90
33831;DHT22;20137;48.834;8.732;2023-03-01T03:38:43;-2.70;99.90
33831;DHT22;20137;48.834;8.732;2023-03-01T03:41:09;-2.70;99.90
33831;DHT22;20137;48.834;8.732;2023-03-01T03:43:37;-2.60;99.90
33831;DHT22;20137;48.834;8.732;2023-03-01T03:46:04;-2.50;99.90
33831;DHT22;20137;48.834;8.732;2023-03-01T03:48:37;-2.50;99.90
33831;DHT22;20137;48.834;8.732;2023-03-01T03:51:03;-2.40;99.90
33831;DHT22;20137;48.834;8.732;2023-03-01T03:53:32;-2.40;99.90
33831;DHT22;20137;48.834;8.732;2023-03-01T03:55:58;-2.40;99.90
33831;DHT22;20137;48.834;8.732;2023-03-01T03:58:24;-2.30;99.90
33831;DHT22;20137;48.834;8.732;2023-03-01T04:00:56;-2.30;99.90
33831;DHT22;20137;48.834;8.732;2023-03-01T04:03:23;-2.30;99.90
33831;DHT22;20137;48.834;8.732;2023-03-01T04:05:49;-2.20;99.90
33831;DHT22;20137;48.834;8.732;2023-03-01T04:08:22;-2.20;99.90
33831;DHT22;20137;48.834;8.732;2023-03-01T04:10:53;-2.20;99.90
33831;DHT22;20137;48.834;8.732;2023-03-01T04:13:22;-2.20;99.90
33831;DHT22;20137;48.834;8.732;2023-03-01T04:15:49;-2.20;99.90
33831;DHT22;20137;48.834;8.732;2023-03-01T04:18:16;-2.20;99.90
33831;DHT22;20137;48.834;8.732;2023-03-01T04:20:43;-2.20;99.90
33831;DHT22;20137;48.834;8.732;2023-03-01T04:23:18;-2.10;99.90
33831;DHT22;20137;48.834;8.732;2023-03-01T04:25:56;-2.10;99.90
33831;DHT22;20137;48.834;8.732;2023-03-01T04:28:29;-2.10;99.90
33831;DHT22;20137;48.834;8.732;2023-03-01T04:30:57;-2.10;99.90
33831;DHT22;20137;48.834;8.732;2023-03-01T04:33:24;-2.10;99.90
33831;DHT22;20137;48.834;8.732;2023-03-01T04:35:50;-2.10;99.90
33831;DHT22;20137;48.834;8.732;2023-03-01T04:38:19;-2.10;99.90
33831;DHT22;20137;48.834;8.732;2023-03-01T04:40:45;-2.10;99.90
33831;DHT22;20137;48.834;8.732;2023-03-01T04:43:11;-2.10;99.90
33831;DHT22;20137;48.834;8.732;2023-03-01T04:45:38;-2.00;99.90
33831;DHT22;20137;48.834;8.732;2023-03-01T04:48:04;-2.00;99.90
33831;DHT22;20137;48.834;8.732;2023-03-01T04:50:30;-2.00;99.90
33831;DHT22;20137;48.834;8.732;2023-03-01T04:52:56;-2.00;99.90
33831;DHT22;20137;48.834;8.732;2023-03-01T04:55:28;-2.00;99.90
33831;DHT22;20137;48.834;8.732;2023-03-01T04:57:54;-2.00;99.90
33831;DHT22;20137;48.834;8.732;2023-03-01T05:00:21;-2.00;99.90
33831;DHT22;20137;48.834;8.732;2023-03-01T05:02:48;-2.00;99.90
33831;DHT22;20137;48.834;8.732;2023-03-01T05:05:15;-2.00;99.90
33831;DHT22;20137;48.834;8.732;2023-03-01T05:07:41;-2.00;99.90
33831;DHT22;20137;48.834;8.732;2023-03-01T05:10:06;-2.00;99.90
33831;DHT22;20137;48.834;8.732;2023-03-01T05:12:32;-2.00;99.90
33831;DHT22;20137;48.834;8.732;2023-03-01T05:14:58;-2.00;99.90
33831;DHT22;20137;48.834;8.732;2023-03-01T05:17:24;-2.00;99.90
33831;DHT22;20137;48.834;8.732;2023-03-01T05:19:49;-1.90;99.90
33831;DHT22;20137;48.834;8.732;2023-03-01T05:22:15;-1.90;99.90
33831;DHT22;20137;48.834;8.732;2023-03-01T05:24:41;-1.90;99.90
33831;DHT22;20137;48.834;8.732;2023-03-01T05:27:07;-1.90;99.90
33831;DHT22;20137;48.834;8.732;2023-03-01T05:29:33;-1.90;99.90
33831;DHT22;20137;48.834;8.732;2023-03-01T05:32:01;-1.90;99.90
33831;DHT22;20137;48.834;8.732;2023-03-01T05:34:34;-1.90;99.90
33831;DHT22;20137;48.834;8.732;2023-03-01T05:37:00;-1.90;99.90
33831;DHT22;20137;48.834;8.732;2023-03-01T05:39:28;-1.90;99.90
33831;DHT22;20137;48.834;8.732;2023-03-01T05:41:55;-1.90;99.90
33831;DHT22;20137;48.834;8.732;2023-03-01T05:44:22;-1.90;99.90
33831;DHT22;20137;48.834;8.732;2023-03-01T05:46:47;-1.90;99.90
33831;DHT22;20137;48.834;8.732;2023-03-01T05:49:14;-1.90;99.90
33831;DHT22;20137;48.834;8.732;2023-03-01T05:51:40;-1.90;99.90
33831;DHT22;20137;48.834;8.732;2023-03-01T05:54:07;-1.90;99.90
33831;DHT22;20137;48.834;8.732;2023-03-01T05:56:34;-1.90;99.90
33831;DHT22;20137;48.834;8.732;2023-03-01T05:59:01;-1.90;99.90
33831;DHT22;20137;48.834;8.732;2023-03-01T06:01:27;-1.90;99.90
33831;DHT22;20137;48.834;8.732;2023-03-01T06:03:52;-2.00;99.90
33831;DHT22;20137;48.834;8.732;2023-03-01T06:06:18;-2.00;99.90
33831;DHT22;20137;48.834;8.732;2023-03-01T06:08:44;-2.00;99.90
33831;DHT22;20137;48.834;8.732;2023-03-01T06:11:09;-2.10;99.90
33831;DHT22;20137;48.834;8.732;2023-03-01T06:13:35;-2.10;99.90
33831;DHT22;20137;48.834;8.732;2023-03-01T06:16:05;-2.10;99.90
33831;DHT22;20137;48.834;8.732;2023-03-01T06:18:31;-2.20;99.90
33831;DHT22;20137;48.834;8.732;2023-03-01T06:20:56;-2.20;99.90
33831;DHT22;20137;48.834;8.732;2023-03-01T06:23:23;-2.20;99.90
33831;DHT22;20137;48.834;8.732;2023-03-01T06:25:49;-2.20;99.90
33831;DHT22;20137;48.834;8.732;2023-03-01T06:28:15;-2.20;99.90
33831;DHT22;20137;48.834;8.732;2023-03-01T06:30:40;-2.20;99.90
33831;DHT22;20137;48.834;8.732;2023-03-01T06:33:06;-2.20;99.90
33831;DHT22;20137;48.834;8.732;2023-03-01T06:35:32;-2.20;99.90
33831;DHT22;20137;48.834;8.732;2023-03-01T06:38:02;-2.10;99.90
33831;DHT22;20137;48.834;8.732;2023-03-01T06:40:28;-2.10;99.90
33831;DHT22;20137;48.834;8.732;2023-03-01T06:42:54;-2.10;99.90
33831;DHT22;20137;48.834;8.732;2023-03-01T06:45:20;-2.00;99.90
33831;DHT22;20137;48.834;8.732;2023-03-01T06:47:46;-2.00;99.90
33831;DHT22;20137;48.834;8.732;2023-03-01T06:50:13;-1.90;99.90
33831;DHT22;20137;48.834;8.732;2023-03-01T06:52:39;-1.90;99.90
33831;DHT22;20137;48.834;8.732;2023-03-01T06:55:05;-2.00;99.90
33831;DHT22;20137;48.834;8.732;2023-03-01T06:57:31;-1.90;99.90
33831;DHT22;20137;48.834;8.732;2023-03-01T06:59:56;-1.90;99.90
33831;DHT22;20137;48.834;8.732;2023-03-01T07:02:22;-1.80;99.90
33831;DHT22;20137;48.834;8.732;2023-03-01T07:04:51;-1.70;99.90
33831;DHT22;20137;48.834;8.732;2023-03-01T07:07:17;-1.60;99.90
33831;DHT22;20137;48.834;8.732;2023-03-01T07:09:44;-1.60;99.90
33831;DHT22;20137;48.834;8.732;2023-03-01T07:12:10;-1.50;99.90
33831;DHT22;20137;48.834;8.732;2023-03-01T07:14:36;-1.40;99.90
33831;DHT22;20137;48.834;8.732;2023-03-01T07:17:02;-1.40;99.90
33831;DHT22;20137;48.834;8.732;2023-03-01T07:19:27;-1.30;99.90
33831;DHT22;20137;48.834;8.732;2023-03-01T07:21:53;-1.30;99.90
33831;DHT22;20137;48.834;8.732;2023-03-01T07:24:19;-1.30;99.90
33831;DHT22;20137;48.834;8.732;2023-03-01T07:26:48;-1.30;99.90
33831;DHT22;20137;48.834;8.732;2023-03-01T07:29:14;-1.40;99.90
33831;DHT22;20137;48.834;8.732;2023-03-01T07:31:40;-1.40;99.90
33831;DHT22;20137;48.834;8.732;2023-03-01T07:34:05;-1.50;99.90
33831;DHT22;20137;48.834;8.732;2023-03-01T07:36:31;-1.40;99.90
33831;DHT22;20137;48.834;8.732;2023-03-01T07:38:56;-1.50;99.90
33831;DHT22;20137;48.834;8.732;2023-03-01T07:41:23;-1.50;99.90
33831;DHT22;20137;48.834;8.732;2023-03-01T07:43:48;-1.40;99.90
33831;DHT22;20137;48.834;8.732;2023-03-01T07:46:14;-1.30;99.90
33831;DHT22;20137;48.834;8.732;2023-03-01T07:48:40;-1.40;99.90
33831;DHT22;20137;48.834;8.732;2023-03-01T07:51:06;-1.30;99.90
33831;DHT22;20137;48.834;8.732;2023-03-01T07:53:33;-1.20;99.90
33831;DHT22;20137;48.834;8.732;2023-03-01T07:56:04;-1.30;99.90
33831;DHT22;20137;48.834;8.732;2023-03-01T07:58:30;-1.20;99.90
33831;DHT22;20137;48.834;8.732;2023-03-01T08:00:55;-1.10;99.90
33831;DHT22;20137;48.834;8.732;2023-03-01T08:03:21;-1.00;99.90
33831;DHT22;20137;48.834;8.732;2023-03-01T08:05:47;-0.90;99.90
33831;DHT22;20137;48.834;8.732;2023-03-01T08:08:13;-0.90;99.90
33831;DHT22;20137;48.834;8.732;2023-03-01T08:10:38;-0.90;99.90
33831;DHT22;20137;48.834;8.732;2023-03-01T08:13:04;-0.80;99.90
33831;DHT22;20137;48.834;8.732;2023-03-01T08:15:29;-0.70;99.90
33831;DHT22;20137;48.834;8.732;2023-03-01T08:17:55;-0.70;99.90
33831;DHT22;20137;48.834;8.732;2023-03-01T08:20:21;-0.60;99.90
33831;DHT22;20137;48.834;8.732;2023-03-01T08:22:49;-0.60;99.90
33831;DHT22;20137;48.834;8.732;2023-03-01T08:25:15;-0.50;99.90
33831;DHT22;20137;48.834;8.732;2023-03-01T08:27:41;-0.40;99.90
33831;DHT22;20137;48.834;8.732;2023-03-01T08:30:07;-0.40;99.90
33831;DHT22;20137;48.834;8.732;2023-03-01T08:32:37;-0.40;99.90
33831;DHT22;20137;48.834;8.732;2023-03-01T08:35:04;-0.30;99.90
33831;DHT22;20137;48.834;8.732;2023-03-01T08:37:29;-0.20;99.90
33831;DHT22;20137;48.834;8.732;2023-03-01T08:39:58;-0.20;99.90
33831;DHT22;20137;48.834;8.732;2023-03-01T08:42:24;-0.10;99.90
33831;DHT22;20137;48.834;8.732;2023-03-01T08:44:50;-0.10;99.90
33831;DHT22;20137;48.834;8.732;2023-03-01T08:47:16;0.00;99.90
33831;DHT22;20137;48.834;8.732;2023-03-01T08:49:42;0.00;99.90
33831;DHT22;20137;48.834;8.732;2023-03-01T08:52:08;0.00;99.90
33831;DHT22;20137;48.834;8.732;2023-03-01T08:54:33;0.00;99.90
33831;DHT22;20137;48.834;8.732;2023-03-01T08:57:02;0.10;99.90
33831;DHT22;20137;48.834;8.732;2023-03-01T08:59:28;0.10;99.90
33831;DHT22;20137;48.834;8.732;2023-03-01T09:01:55;0.20;99.90
33831;DHT22;20137;48.834;8.732;2023-03-01T09:04:21;0.30;99.90
33831;DHT22;20137;48.834;8.732;2023-03-01T09:06:47;0.30;99.90
33831;DHT22;20137;48.834;8.732;2023-03-01T09:09:17;0.30;99.90
33831;DHT22;20137;48.834;8.732;2023-03-01T09:11:43;0.50;99.90
33831;DHT22;20137;48.834;8.732;2023-03-01T09:14:12;0.60;99.90
33831;DHT22;20137;48.834;8.732;2023-03-01T09:16:37;0.50;99.90
33831;DHT22;20137;48.834;8.732;2023-03-01T09:19:04;0.60;99.90
33831;DHT22;20137;48.834;8.732;2023-03-01T09:21:29;0.50;99.90
33831;DHT22;20137;48.834;8.732;2023-03-01T09:23:56;0.50;99.90
33831;DHT22;20137;48.834;8.732;2023-03-01T09:26:23;0.70;99.90
33831;DHT22;20137;48.834;8.732;2023-03-01T09:28:50;0.80;99.90
33831;DHT22;20137;48.834;8.732;2023-03-01T09:31:18;0.80;99.90
33831;DHT22;20137;48.834;8.732;2023-03-01T09:33:49;0.90;99.90
33831;DHT22;20137;48.834;8.732;2023-03-01T09:36:20;0.90;99.90
33831;DHT22;20137;48.834;8.732;2023-03-01T09:38:47;1.00;99.90
33831;DHT22;20137;48.834;8.732;2023-03-01T09:44:01;1.10;99.90
33831;DHT22;20137;48.834;8.732;2023-03-01T09:46:36;1.20;99.90
33831;DHT22;20137;48.834;8.732;2023-03-01T09:49:11;1.40;99.90
33831;DHT22;20137;48.834;8.732;2023-03-01T09:51:37;1.40;99.90
33831;DHT22;20137;48.834;8.732;2023-03-01T09:54:05;1.50;99.90
33831;DHT22;20137;48.834;8.732;2023-03-01T09:56:39;1.60;99.90
33831;DHT22;20137;48.834;8.732;2023-03-01T10:04:45;1.90;99.90
33831;DHT22;20137;48.834;8.732;2023-03-01T10:07:44;1.90;99.90
33831;DHT22;20137;48.834;8.732;2023-03-01T10:10:35;1.90;99.90
33831;DHT22;20137;48.834;8.732;2023-03-01T10:13:17;2.00;99.90
33831;DHT22;20137;48.834;8.732;2023-03-01T10:15:50;2.00;99.90
33831;DHT22;20137;48.834;8.732;2023-03-01T10:18:28;1.90;99.90
33831;DHT22;20137;48.834;8.732;2023-03-01T10:21:16;1.90;99.90
33831;DHT22;20137;48.834;8.732;2023-03-01T10:23:42;1.90;99.90
33831;DHT22;20137;48.834;8.732;2023-03-01T10:26:41;1.80;99.90
33831;DHT22;20137;48.834;8.732;2023-03-01T10:29:10;2.00;99.90
33831;DHT22;20137;48.834;8.732;2023-03-01T10:31:49;2.10;99.90
33831;DHT22;20137;48.834;8.732;2023-03-01T10:34:21;2.20;99.90
33831;DHT22;20137;48.834;8.732;2023-03-01T10:36:50;2.20;99.90
33831;DHT22;20137;48.834;8.732;2023-03-01T10:39:22;2.40;99.90
33831;DHT22;20137;48.834;8.732;2023-03-01T10:41:55;2.40;99.90
33831;DHT22;20137;48.834;8.732;2023-03-01T10:47:02;2.50;99.90
33831;DHT22;20137;48.834;8.732;2023-03-01T10:49:28;2.50;99.90
33831;DHT22;20137;48.834;8.732;2023-03-01T10:51:54;2.60;99.90
33831;DHT22;20137;48.834;8.732;2023-03-01T10:54:28;2.70;99.90
33831;DHT22;20137;48.834;8.732;2023-03-01T10:56:56;2.80;99.90
33831;DHT22;20137;48.834;8.732;2023-03-01T11:02:22;2.80;99.90
33831;DHT22;20137;48.834;8.732;2023-03-01T11:07:54;2.80;99.90
33831;DHT22;20137;48.834;8.732;2023-03-01T11:10:27;2.90;99.90
33831;DHT22;20137;48.834;8.732;2023-03-01T11:12:54;3.00;99.90
33831;DHT22;20137;48.834;8.732;2023-03-01T11:15:31;3.10;99.90
33831;DHT22;20137;48.834;8.732;2023-03-01T11:17:57;3.20;99.90
33831;DHT22;20137;48.834;8.732;2023-03-01T11:20:36;3.20;99.90
33831;DHT22;20137;48.834;8.732;2023-03-01T11:23:04;3.20;99.90
33831;DHT22;20137;48.834;8.732;2023-03-01T11:25:35;2.90;99.90
33831;DHT22;20137;48.834;8.732;2023-03-01T11:28:04;2.90;99.90
33831;DHT22;20137;48.834;8.732;2023-03-01T11:30:50;2.80;99.90
33831;DHT22;20137;48.834;8.732;2023-03-01T11:35:55;3.20;99.90
33831;DHT22;20137;48.834;8.732;2023-03-01T11:38:25;3.10;99.90
33831;DHT22;20137;48.834;8.732;2023-03-01T11:41:01;3.30;99.90
33831;DHT22;20137;48.834;8.732;2023-03-01T11:55:12;3.40;99.90
33831;DHT22;20137;48.834;8.732;2023-03-01T11:58:14;3.40;99.90
33831;DHT22;20137;48.834;8.732;2023-03-01T12:03:52;3.40;99.90
33831;DHT22;20137;48.834;8.732;2023-03-01T12:20:36;3.70;99.90
33831;DHT22;20137;48.834;8.732;2023-03-01T12:25:41;3.90;99.90
33831;DHT22;20137;48.834;8.732;2023-03-01T12:28:31;3.80;99.90
33831;DHT22;20137;48.834;8.732;2023-03-01T12:31:29;4.00;99.90
33831;DHT22;20137;48.834;8.732;2023-03-01T12:34:29;4.00;99.90
33831;DHT22;20137;48.834;8.732;2023-03-01T12:43:10;4.10;99.90
33831;DHT22;20137;48.834;8.732;2023-03-01T12:51:29;4.20;99.90
33831;DHT22;20137;48.834;8.732;2023-03-01T12:53:57;4.40;99.90
33831;DHT22;20137;48.834;8.732;2023-03-01T12:56:29;4.20;99.90
33831;DHT22;20137;48.834;8.732;2023-03-01T12:59:11;4.10;99.90
33831;DHT22;20137;48.834;8.732;2023-03-01T13:12:02;4.40;99.90
33831;DHT22;20137;48.834;8.732;2023-03-01T13:16:56;4.70;99.90
33831;DHT22;20137;48.834;8.732;2023-03-01T13:21:51;4.70;99.90
33831;DHT22;20137;48.834;8.732;2023-03-01T13:24:27;4.50;99.90
33831;DHT22;20137;48.834;8.732;2023-03-01T13:29:53;4.60;99.90
33831;DHT22;20137;48.834;8.732;2023-03-01T13:34:53;4.50;99.90
33831;DHT22;20137;48.834;8.732;2023-03-01T13:37:22;4.40;99.90
33831;DHT22;20137;48.834;8.732;2023-03-01T13:39:48;4.50;99.90
33831;DHT22;20137;48.834;8.732;2023-03-01T13:42:41;4.50;99.90
33831;DHT22;20137;48.834;8.732;2023-03-01T13:47:42;4.60;99.90
33831;DHT22;20137;48.834;8.732;2023-03-01T13:50:18;4.50;99.90
33831;DHT22;20137;48.834;8.732;2023-03-01T13:52:48;4.70;99.90
33831;DHT22;20137;48.834;8.732;2023-03-01T13:55:24;4.80;99.90
33831;DHT22;20137;48.834;8.732;2023-03-01T13:57:56;4.60;99.90
33831;DHT22;20137;48.834;8.732;2023-03-01T14:00:36;4.70;99.90
33831;DHT22;20137;48.834;8.732;2023-03-01T14:03:10;4.80;99.90
33831;DHT22;20137;48.834;8.732;2023-03-01T14:05:38;4.80;99.90
33831;DHT22;20137;48.834;8.732;2023-03-01T14:08:04;4.70;99.90
33831;DHT22;20137;48.834;8.732;2023-03-01T14:10:57;4.60;99.90
33831;DHT22;20137;48.834;8.732;2023-03-01T14:16:17;4.50;99.90
33831;DHT22;20137;48.834;8.732;2023-03-01T14:19:01;4.70;99.90
33831;DHT22;20137;48.834;8.732;2023-03-01T14:21:30;4.50;99.90
33831;DHT22;20137;48.834;8.732;2023-03-01T14:23:57;4.50;99.90
33831;DHT22;20137;48.834;8.732;2023-03-01T14:26:23;4.40;99.90
33831;DHT22;20137;48.834;8.732;2023-03-01T14:28:50;4.40;99.90
33831;DHT22;20137;48.834;8.732;2023-03-01T14:31:35;4.50;99.90
33831;DHT22;20137;48.834;8.732;2023-03-01T14:34:01;4.50;99.90
33831;DHT22;20137;48.834;8.732;2023-03-01T14:36:29;4.60;99.90
33831;DHT22;20137;48.834;8.732;2023-03-01T14:38:55;4.60;99.90
33831;DHT22;20137;48.834;8.732;2023-03-01T14:41:25;4.50;99.90
33831;DHT22;20137;48.834;8.732;2023-03-01T14:44:05;4.60;99.90
33831;DHT22;20137;48.834;8.732;2023-03-01T14:46:53;4.60;99.90
33831;DHT22;20137;48.834;8.732;2023-03-01T14:49:23;4.80;99.90
33831;DHT22;20137;48.834;8.732;2023-03-01T14:52:22;4.90;99.90
33831;DHT22;20137;48.834;8.732;2023-03-01T14:54:53;4.80;99.90
33831;DHT22;20137;48.834;8.732;2023-03-01T14:57:22;5.00;99.90
33831;DHT22;20137;48.834;8.732;2023-03-01T14:59:57;4.80;99.90
33831;DHT22;20137;48.834;8.732;2023-03-01T15:02:28;4.80;99.90
33831;DHT22;20137;48.834;8.732;2023-03-01T15:04:56;4.80;99.90
33831;DHT22;20137;48.834;8.732;2023-03-01T15:07:26;4.70;99.90
33831;DHT22;20137;48.834;8.732;2023-03-01T15:09:53;4.60;99.90
33831;DHT22;20137;48.834;8.732;2023-03-01T15:14:54;4.60;99.90
33831;DHT22;20137;48.834;8.732;2023-03-01T15:17:31;4.50;99.90
33831;DHT22;20137;48.834;8.732;2023-03-01T15:19:58;4.70;99.90
33831;DHT22;20137;48.834;8.732;2023-03-01T15:22:25;4.80;99.90
33831;DHT22;20137;48.834;8.732;2023-03-01T15:24:52;4.80;99.90
33831;DHT22;20137;48.834;8.732;2023-03-01T15:27:20;4.90;99.90
33831;DHT22;20137;48.834;8.732;2023-03-01T15:29:56;4.60;99.90
33831;DHT22;20137;48.834;8.732;2023-03-01T15:32:32;4.70;99.90
33831;DHT22;20137;48.834;8.732;2023-03-01T15:34:59;4.70;99.90
33831;DHT22;20137;48.834;8.732;2023-03-01T15:40:27;4.70;99.90
33831;DHT22;20137;48.834;8.732;2023-03-01T15:43:05;4.60;99.90
33831;DHT22;20137;48.834;8.732;2023-03-01T15:45:32;4.50;99.90
33831;DHT22;20137;48.834;8.732;2023-03-01T15:48:18;4.40;99.90
33831;DHT22;20137;48.834;8.732;2023-03-01T15:50:55;4.40;99.90
33831;DHT22;20137;48.834;8.732;2023-03-01T15:53:21;4.40;99.90
33831;DHT22;20137;48.834;8.732;2023-03-01T15:55:47;4.40;99.90
33831;DHT22;20137;48.834;8.732;2023-03-01T15:58:24;4.40;99.90
33831;DHT22;20137;48.834;8.732;2023-03-01T16:00:50;4.40;99.90
33831;DHT22;20137;48.834;8.732;2023-03-01T16:03:22;4.40;99.90
33831;DHT22;20137;48.834;8.732;2023-03-01T16:05:51;4.40;99.90
33831;DHT22;20137;48.834;8.732;2023-03-01T16:08:18;4.30;99.90
33831;DHT22;20137;48.834;8.732;2023-03-01T16:10:44;4.30;99.90
33831;DHT22;20137;48.834;8.732;2023-03-01T16:13:12;4.20;99.90
33831;DHT22;20137;48.834;8.732;2023-03-01T16:15:38;4.20;99.90
33831;DHT22;20137;48.834;8.732;2023-03-01T16:18:05;4.30;99.90
33831;DHT22;20137;48.834;8.732;2023-03-01T16:20:33;4.20;99.90
33831;DHT22;20137;48.834;8.732;2023-03-01T16:22:59;4.60;99.90
33831;DHT22;20137;48.834;8.732;2023-03-01T16:25:25;4.10;99.90
33831;DHT22;20137;48.834;8.732;2023-03-01T16:27:51;4.00;99.90
33831;DHT22;20137;48.834;8.732;2023-03-01T16:30:19;4.00;99.90
33831;DHT22;20137;48.834;8.732;2023-03-01T16:32:47;3.90;99.90
33831;DHT22;20137;48.834;8.732;2023-03-01T16:35:15;3.80;99.90
33831;DHT22;20137;48.834;8.732;2023-03-01T16:37:41;3.80;99.90
33831;DHT22;20137;48.834;8.732;2023-03-01T16:40:25;3.80;99.90
33831;DHT22;20137;48.834;8.732;2023-03-01T16:42:55;3.70;99.90
33831;DHT22;20137;48.834;8.732;2023-03-01T16:45:25;3.60;99.90
33831;DHT22;20137;48.834;8.732;2023-03-01T16:47:52;3.60;99.90
33831;DHT22;20137;48.834;8.732;2023-03-01T16:50:18;3.50;99.90
33831;DHT22;20137;48.834;8.732;2023-03-01T16:52:44;3.50;99.90
33831;DHT22;20137;48.834;8.732;2023-03-01T16:55:10;3.40;99.90
33831;DHT22;20137;48.834;8.732;2023-03-01T16:57:37;3.30;99.90
33831;DHT22;20137;48.834;8.732;2023-03-01T17:00:04;3.20;99.90
33831;DHT22;20137;48.834;8.732;2023-03-01T17:02:33;3.20;99.90
33831;DHT22;20137;48.834;8.732;2023-03-01T17:04:59;3.20;99.90
33831;DHT22;20137;48.834;8.732;2023-03-01T17:07:25;3.10;99.90
33831;DHT22;20137;48.834;8.732;2023-03-01T17:09:50;3.00;99.90
33831;DHT22;20137;48.834;8.732;2023-03-01T17:12:16;2.90;99.90
33831;DHT22;20137;48.834;8.732;2023-03-01T17:14:42;2.90;99.90
33831;DHT22;20137;48.834;8.732;2023-03-01T17:17:09;2.90;99.90
33831;DHT22;20137;48.834;8.732;2023-03-01T17:19:35;2.90;99.90
33831;DHT22;20137;48.834;8.732;2023-03-01T17:22:05;2.70;99.90
33831;DHT22;20137;48.834;8.732;2023-03-01T17:24:35;2.70;99.90
33831;DHT22;20137;48.834;8.732;2023-03-01T17:27:02;2.60;99.90
33831;DHT22;20137;48.834;8.732;2023-03-01T17:29:27;2.50;99.90
33831;DHT22;20137;48.834;8.732;2023-03-01T17:31:53;2.50;99.90
33831;DHT22;20137;48.834;8.732;2023-03-01T17:34:24;2.50;99.90
33831;DHT22;20137;48.834;8.732;2023-03-01T17:36:50;2.30;99.90
33831;DHT22;20137;48.834;8.732;2023-03-01T17:39:17;2.20;99.90
33831;DHT22;20137;48.834;8.732;2023-03-01T17:41:44;2.30;99.90